createdAt,value
2018-10-06T00:02:25.473Z,9.27
2018-10-06T00:04:57.707Z,8.43
2018-10-06T00:07:28.827Z,8.43
2018-10-06T00:10:01.433Z,9.33
2018-10-06T00:12:32.715Z,8.83
2018-10-06T00:15:05.153Z,9.60
2018-10-06T00:17:36.219Z,9.30
2018-10-06T00:20:08.639Z,14.03
2018-10-06T00:22:39.862Z,11.07
2018-10-06T00:25:11.227Z,11.23
2018-10-06T00:27:42.985Z,10.97
2018-10-06T00:30:14.350Z,9.33
2018-10-06T00:32:45.772Z,10.40
2018-10-06T00:35:16.935Z,8.17
2018-10-06T00:37:47.937Z,8.70
2018-10-06T00:40:19.873Z,9.87
2018-10-06T00:42:51.594Z,14.50
2018-10-06T00:45:22.532Z,13.93
2018-10-06T00:47:54.108Z,12.73
2018-10-06T00:50:26.063Z,10.57
2018-10-06T00:52:57.085Z,10.10
2018-10-06T00:55:27.929Z,10.97
2018-10-06T00:57:58.837Z,12.67
2018-10-06T01:00:29.797Z,9.93
2018-10-06T01:03:01.543Z,9.40
2018-10-06T01:05:32.544Z,9.37
2018-10-06T01:08:03.710Z,11.57
2018-10-06T01:10:35.047Z,9.87
2018-10-06T01:13:06.466Z,12.00
2018-10-06T01:15:37.564Z,11.77
2018-10-06T01:18:08.949Z,12.67
2018-10-06T01:20:40.492Z,13.77
2018-10-06T01:23:11.823Z,10.83
2018-10-06T01:25:42.905Z,13.60
2018-10-06T01:28:15.573Z,10.30
2018-10-06T01:30:46.872Z,10.87
2018-10-06T01:33:17.949Z,7.83
2018-10-06T01:35:48.993Z,13.37
2018-10-06T01:38:19.942Z,9.70
2018-10-06T01:40:51.119Z,8.50
2018-10-06T01:43:22.284Z,15.57
2018-10-06T01:45:53.709Z,12.80
2018-10-06T01:48:25.004Z,12.30
2018-10-06T01:50:56.329Z,11.17
2018-10-06T01:53:27.367Z,9.40
2018-10-06T01:55:58.417Z,12.90
2018-10-06T01:58:29.635Z,12.07
2018-10-06T02:01:01.045Z,10.33
2018-10-06T02:03:32.819Z,10.73
2018-10-06T02:06:03.936Z,13.53
2018-10-06T02:08:35.243Z,13.00
2018-10-06T02:11:06.696Z,10.70
2018-10-06T02:13:38.216Z,9.87
2018-10-06T02:16:10.008Z,12.40
2018-10-06T02:18:41.263Z,10.33
2018-10-06T02:21:12.712Z,9.00
2018-10-06T02:23:44.615Z,11.43
2018-10-06T02:26:16.024Z,12.23
2018-10-06T02:28:47.537Z,13.67
2018-10-06T02:31:18.661Z,10.77
2018-10-06T02:33:49.721Z,11.33
2018-10-06T02:36:20.773Z,13.73
2018-10-06T02:38:51.844Z,9.60
2018-10-06T02:41:22.809Z,12.40
2018-10-06T02:43:53.984Z,13.03
2018-10-06T02:46:25.252Z,12.57
2018-10-06T02:48:56.761Z,14.15
2018-10-06T02:51:27.543Z,11.27
2018-10-06T02:53:58.414Z,12.33
2018-10-06T02:56:29.424Z,10.27
2018-10-06T02:59:00.455Z,12.67
2018-10-06T03:01:31.544Z,10.97
2018-10-06T03:04:02.869Z,10.23
2018-10-06T03:06:33.859Z,11.33
2018-10-06T03:09:05.859Z,11.60
2018-10-06T03:11:37.326Z,12.87
2018-10-06T03:14:08.534Z,14.37
2018-10-06T03:16:39.733Z,15.97
2018-10-06T03:19:10.707Z,11.07
2018-10-06T03:21:41.733Z,14.93
2018-10-06T03:24:13.049Z,11.07
2018-10-06T03:26:44.477Z,13.80
2018-10-06T03:29:15.775Z,12.90
2018-10-06T03:31:47.204Z,11.90
2018-10-06T03:34:18.606Z,12.40
2018-10-06T03:36:50.039Z,13.70
2018-10-06T03:39:21.135Z,13.03
2018-10-06T03:41:52.348Z,12.73
2018-10-06T03:44:23.421Z,13.20
2018-10-06T03:46:54.476Z,13.07
2018-10-06T03:49:25.873Z,12.17
2018-10-06T03:51:57.173Z,13.20
2018-10-06T03:54:28.396Z,11.43
2018-10-06T03:56:59.722Z,13.37
2018-10-06T03:59:32.125Z,13.57
2018-10-06T04:02:04.273Z,11.67
2018-10-06T04:04:35.593Z,13.00
2018-10-06T04:07:06.982Z,12.23
2018-10-06T04:09:38.443Z,13.73
2018-10-06T04:12:10.052Z,12.60
2018-10-06T04:14:41.992Z,13.33
2018-10-06T04:17:13.093Z,16.40
2018-10-06T04:19:44.488Z,11.47
2018-10-06T04:22:16.285Z,13.47
2018-10-06T04:24:48.054Z,16.77
2018-10-06T04:27:19.372Z,13.13
2018-10-06T04:29:51.063Z,12.97
2018-10-06T04:32:22.693Z,13.70
2018-10-06T04:34:54.092Z,15.20
2018-10-06T04:37:25.842Z,14.73
2018-10-06T04:39:58.448Z,12.63
2018-10-06T04:42:30.970Z,14.07
2018-10-06T04:45:02.739Z,12.40
2018-10-06T04:47:34.723Z,15.13
2018-10-06T04:50:06.269Z,20.37
2018-10-06T04:52:37.817Z,12.00
2018-10-06T04:55:09.865Z,14.47
2018-10-06T04:57:41.405Z,16.50
2018-10-06T05:00:13.976Z,13.93
2018-10-06T05:02:46.379Z,11.60
2018-10-06T05:05:18.007Z,14.27
2018-10-06T05:07:49.713Z,13.37
2018-10-06T05:10:22.083Z,14.63
2018-10-06T05:12:53.745Z,17.27
2018-10-06T05:15:25.082Z,13.00
2018-10-06T05:17:56.211Z,12.57
2018-10-06T05:20:27.847Z,13.17
2018-10-06T05:22:59.309Z,11.40
2018-10-06T05:25:30.792Z,13.30
2018-10-06T05:28:03.364Z,12.23
2018-10-06T05:30:34.797Z,13.03
2018-10-06T05:33:06.393Z,11.50
2018-10-06T05:35:37.793Z,13.37
2018-10-06T05:38:09.373Z,14.27
2018-10-06T05:40:40.909Z,13.13
2018-10-06T05:43:12.517Z,12.30
2018-10-06T05:45:44.761Z,14.53
2018-10-06T05:48:16.567Z,11.10
2018-10-06T05:50:48.645Z,11.53
2018-10-06T05:53:20.116Z,14.97
2018-10-06T05:55:51.336Z,10.33
2018-10-06T05:58:22.783Z,11.70
2018-10-06T06:00:54.219Z,11.57
2018-10-06T06:03:25.923Z,11.70
2018-10-06T06:05:57.770Z,12.10
2018-10-06T06:08:29.011Z,11.87
2018-10-06T06:11:00.079Z,13.17
2018-10-06T06:13:31.425Z,11.40
2018-10-06T06:16:02.206Z,11.33
2018-10-06T06:18:32.889Z,12.03
2018-10-06T06:21:03.876Z,10.30
2018-10-06T06:23:34.728Z,12.00
2018-10-06T06:26:05.384Z,12.53
2018-10-06T06:28:35.758Z,10.90
2018-10-06T06:31:06.259Z,11.90
2018-10-06T06:33:36.678Z,13.63
2018-10-06T06:36:07.434Z,15.87
2018-10-06T06:38:38.007Z,14.10
2018-10-06T06:41:10.056Z,13.30
2018-10-06T06:43:40.515Z,13.10
2018-10-06T06:46:11.518Z,12.93
2018-10-06T06:48:42.753Z,14.73
2018-10-06T06:51:13.723Z,12.50
2018-10-06T06:53:44.474Z,11.87
2018-10-06T06:56:15.183Z,18.33
2018-10-06T06:58:45.970Z,13.43
2018-10-06T07:01:16.820Z,12.73
2018-10-06T07:03:47.741Z,11.43
2018-10-06T07:06:18.485Z,16.80
2018-10-06T07:08:49.235Z,14.60
2018-10-06T07:11:20.133Z,12.53
2018-10-06T07:13:51.008Z,13.07
2018-10-06T07:16:21.766Z,12.97
2018-10-06T07:18:52.618Z,11.25
2018-10-06T07:21:23.437Z,13.23
2018-10-06T07:23:54.073Z,12.13
2018-10-06T07:26:24.709Z,9.50
2018-10-06T07:28:55.552Z,11.43
2018-10-06T07:31:26.177Z,12.10
2018-10-06T07:33:56.775Z,10.93
2018-10-06T07:36:27.292Z,13.17
2018-10-06T07:38:59.990Z,10.83
2018-10-06T07:41:30.493Z,10.77
2018-10-06T07:44:00.886Z,12.30
2018-10-06T07:46:31.442Z,10.63
2018-10-06T07:49:01.910Z,11.20
2018-10-06T07:51:32.353Z,9.97
2018-10-06T07:54:02.848Z,14.43
2018-10-06T07:56:33.297Z,12.70
2018-10-06T07:59:03.749Z,14.27
2018-10-06T08:01:34.214Z,10.50
2018-10-06T08:04:04.650Z,11.13
2018-10-06T08:06:35.415Z,12.63
2018-10-06T08:09:07.736Z,11.67
2018-10-06T08:11:38.386Z,13.17
2018-10-06T08:14:08.966Z,9.87
2018-10-06T08:16:39.346Z,12.60
2018-10-06T08:19:09.753Z,15.37
2018-10-06T08:21:40.230Z,11.37
2018-10-06T08:24:10.700Z,10.30
2018-10-06T08:26:41.703Z,11.23
2018-10-06T08:29:12.335Z,10.57
2018-10-06T08:31:42.907Z,9.50
2018-10-06T08:34:13.267Z,11.30
2018-10-06T08:36:43.731Z,11.33
2018-10-06T08:39:14.088Z,10.80
2018-10-06T08:41:44.699Z,9.80
2018-10-06T08:44:15.153Z,12.57
2018-10-06T08:46:46.467Z,8.53
2018-10-06T08:49:17.527Z,10.27
2018-10-06T08:51:48.379Z,8.33
2018-10-06T08:54:19.151Z,9.53
2018-10-06T08:56:50.641Z,10.87
2018-10-06T08:59:21.003Z,9.33
2018-10-06T09:01:51.540Z,7.67
2018-10-06T09:04:22.072Z,7.47
2018-10-06T09:06:52.470Z,9.53
2018-10-06T09:09:22.959Z,9.33
2018-10-06T09:11:53.531Z,7.33
2018-10-06T09:14:23.890Z,8.20
2018-10-06T09:16:54.310Z,7.70
2018-10-06T09:19:24.662Z,7.97
2018-10-06T09:21:55.192Z,7.77
2018-10-06T09:24:25.569Z,6.13
2018-10-06T09:26:56.201Z,8.30
2018-10-06T09:29:26.603Z,5.53
2018-10-06T09:31:57.099Z,5.47
2018-10-06T09:34:27.678Z,5.00
2018-10-06T09:36:58.325Z,4.87
2018-10-06T09:39:29.265Z,5.80
2018-10-06T09:41:59.807Z,5.73
2018-10-06T09:44:31.568Z,7.50
2018-10-06T09:47:02.077Z,6.60
2018-10-06T09:49:32.764Z,8.80
2018-10-06T09:52:03.693Z,7.13
2018-10-06T09:54:34.093Z,5.97
2018-10-06T09:57:04.580Z,6.70
2018-10-06T09:59:35.051Z,6.80
2018-10-06T10:04:12.616Z,5.97
2018-10-06T10:06:43.214Z,5.87
2018-10-06T10:09:15.152Z,9.63
2018-10-06T10:11:45.676Z,4.87
2018-10-06T10:14:16.232Z,6.72
2018-10-06T10:16:46.650Z,6.27
2018-10-06T10:19:17.168Z,6.13
2018-10-06T10:21:47.698Z,6.77
2018-10-06T10:24:18.172Z,6.07
2018-10-06T10:26:49.912Z,7.80
2018-10-06T10:29:20.352Z,8.43
2018-10-06T10:31:50.891Z,5.20
2018-10-06T10:34:21.499Z,6.10
2018-10-06T10:36:52.017Z,6.97
2018-10-06T10:39:23.022Z,6.25
2018-10-06T10:41:53.494Z,7.65
2018-10-06T10:44:24.034Z,6.20
2018-10-06T10:46:54.961Z,9.30
2018-10-06T10:49:27.210Z,8.55
2018-10-06T10:52:01.739Z,6.25
2018-10-06T10:54:32.325Z,7.75
2018-10-06T10:57:16.849Z,7.80
2018-10-06T11:00:18.307Z,5.78
2018-10-06T11:02:48.958Z,6.03
2018-10-06T11:05:26.923Z,5.15
2018-10-06T11:10:58.988Z,6.03
2018-10-06T11:13:29.957Z,4.50
2018-10-06T11:16:00.835Z,5.17
2018-10-06T11:18:31.698Z,4.42
2018-10-06T11:21:02.489Z,5.10
2018-10-06T11:23:52.086Z,7.12
2018-10-06T11:53:22.450Z,5.92
2018-10-06T11:55:53.283Z,2.63
2018-10-06T11:58:23.943Z,3.40
2018-10-06T12:00:54.733Z,5.42
2018-10-06T12:03:25.451Z,4.22
2018-10-06T12:05:56.427Z,3.20
2018-10-06T12:08:30.334Z,4.70
2018-10-06T12:11:01.061Z,3.95
2018-10-06T12:13:31.961Z,6.92
2018-10-06T12:16:04.904Z,25.82
2018-10-06T12:18:44.114Z,4.53
2018-10-06T12:21:14.844Z,7.10
2018-10-06T12:23:46.729Z,4.55
2018-10-06T12:26:17.346Z,5.12
2018-10-06T12:28:48.271Z,8.03
2018-10-06T12:31:18.900Z,3.30
2018-10-06T12:33:49.636Z,6.83
2018-10-06T12:36:20.299Z,3.30
2018-10-06T12:38:51.074Z,5.70
2018-10-06T12:41:21.853Z,3.60
2018-10-06T12:43:52.595Z,4.00
2018-10-06T12:46:23.203Z,3.47
2018-10-06T12:48:53.871Z,2.47
2018-10-06T12:51:24.400Z,4.03
2018-10-06T12:53:55.373Z,3.07
2018-10-06T12:56:25.964Z,3.75
2018-10-06T12:58:56.652Z,3.65
2018-10-06T13:01:27.422Z,2.55
2018-10-06T13:03:58.105Z,4.57
2018-10-06T13:06:28.855Z,2.95
2018-10-06T13:08:59.667Z,2.40
2018-10-06T13:11:31.933Z,3.83
2018-10-06T13:14:03.155Z,3.00
2018-10-06T13:16:57.940Z,4.00
2018-10-06T13:19:29.408Z,3.55
2018-10-06T13:22:01.063Z,2.77
2018-10-06T13:24:31.707Z,4.28
2018-10-06T13:27:02.325Z,6.47
2018-10-06T13:29:33.445Z,8.58
2018-10-06T13:32:04.492Z,4.08
2018-10-06T13:34:34.941Z,4.70
2018-10-06T13:37:05.729Z,5.03
2018-10-06T13:39:42.390Z,3.72
2018-10-06T13:42:16.263Z,3.33
2018-10-06T13:44:47.061Z,4.22
2018-10-06T13:47:17.645Z,7.22
2018-10-06T13:49:48.130Z,3.65
2018-10-06T13:52:18.593Z,3.62
2018-10-06T13:54:49.169Z,2.47
2018-10-06T13:57:19.712Z,3.15
2018-10-06T13:59:50.209Z,3.02
2018-10-06T14:02:20.672Z,6.20
2018-10-06T14:04:51.273Z,4.28
2018-10-06T14:07:21.998Z,4.30
2018-10-06T14:09:52.511Z,2.90
2018-10-06T14:12:23.045Z,5.45
2018-10-06T14:14:53.610Z,3.72
2018-10-06T14:17:24.134Z,5.72
2018-10-06T14:19:54.643Z,4.40
2018-10-06T14:22:25.147Z,6.47
2018-10-06T14:24:55.770Z,5.28
2018-10-06T14:27:26.248Z,5.08
2018-10-06T14:29:56.771Z,7.58
2018-10-06T14:32:27.358Z,5.42
2018-10-06T14:34:57.861Z,3.72
2018-10-06T14:37:28.443Z,3.95
2018-10-06T14:39:58.944Z,3.77
2018-10-06T14:42:29.425Z,5.92
2018-10-06T14:44:59.943Z,3.17
2018-10-06T14:47:30.412Z,6.55
2018-10-06T14:50:00.973Z,6.03
2018-10-06T14:52:31.424Z,3.87
2018-10-06T14:55:01.893Z,2.98
2018-10-06T14:57:32.375Z,5.97
2018-10-06T15:00:02.903Z,5.60
2018-10-06T15:02:33.372Z,4.00
2018-10-06T15:05:04.293Z,3.42
2018-10-06T15:07:34.938Z,4.42
2018-10-06T15:10:05.584Z,3.10
2018-10-06T15:12:36.067Z,4.83
2018-10-06T15:15:06.710Z,3.75
2018-10-06T15:17:37.183Z,6.05
2018-10-06T15:20:07.830Z,6.37
2018-10-06T15:22:38.366Z,4.08
2018-10-06T15:25:09.051Z,3.58
2018-10-06T15:27:39.675Z,4.45
2018-10-06T15:30:10.190Z,3.45
2018-10-06T15:32:40.660Z,3.65
2018-10-06T15:35:11.125Z,3.50
2018-10-06T15:37:41.600Z,4.70
2018-10-06T15:40:12.106Z,4.10
2018-10-06T15:42:42.757Z,6.47
2018-10-06T15:45:13.223Z,4.58
2018-10-06T15:47:43.648Z,8.15
2018-10-06T15:50:14.125Z,5.55
2018-10-06T15:52:44.546Z,6.10
2018-10-06T15:55:15.018Z,6.08
2018-10-06T15:57:45.413Z,4.92
2018-10-06T16:00:15.847Z,4.72
2018-10-06T16:02:46.455Z,3.77
2018-10-06T16:05:16.987Z,7.35
2018-10-06T16:07:47.452Z,3.62
2018-10-06T16:10:18.014Z,5.25
2018-10-06T16:12:48.500Z,8.50
2018-10-06T16:15:18.947Z,4.70
2018-10-06T16:17:49.380Z,6.67
2018-10-06T16:20:19.962Z,5.28
2018-10-06T16:22:50.435Z,5.87
2018-10-06T16:25:20.963Z,3.70
2018-10-06T16:27:51.434Z,4.40
2018-10-06T16:30:21.973Z,7.33
2018-10-06T16:32:52.508Z,6.53
2018-10-06T16:35:23.070Z,3.72
2018-10-06T16:37:53.565Z,4.58
2018-10-06T16:40:24.112Z,4.17
2018-10-06T16:42:54.572Z,3.85
2018-10-06T16:45:25.106Z,3.95
2018-10-06T16:47:55.593Z,4.35
2018-10-06T16:50:26.061Z,5.97
2018-10-06T16:52:56.563Z,6.15
2018-10-06T16:55:27.132Z,4.15
2018-10-06T16:57:57.565Z,3.40
2018-10-06T17:00:28.143Z,5.25
2018-10-06T17:02:58.525Z,5.72
2018-10-06T17:05:29.044Z,7.33
2018-10-06T17:07:59.546Z,5.35
2018-10-06T17:10:30.095Z,4.85
2018-10-06T17:13:00.636Z,3.55
2018-10-06T17:15:31.128Z,7.13
2018-10-06T17:18:01.581Z,8.10
2018-10-06T17:20:32.072Z,5.33
2018-10-06T17:23:03.413Z,6.28
2018-10-06T17:25:33.903Z,8.68
2018-10-06T17:28:04.398Z,6.80
2018-10-06T17:30:34.939Z,5.65
2018-10-06T17:33:05.419Z,4.62
2018-10-06T17:35:36.085Z,7.15
2018-10-06T17:38:06.664Z,5.43
2018-10-06T17:40:37.747Z,6.40
2018-10-06T17:43:08.625Z,4.67
2018-10-06T17:45:39.527Z,5.35
2018-10-06T17:48:10.168Z,6.05
2018-10-06T17:50:44.911Z,6.87
2018-10-06T17:53:15.326Z,7.97
2018-10-06T17:55:45.859Z,5.57
2018-10-06T17:58:16.311Z,7.20
2018-10-06T18:00:53.332Z,7.70
2018-10-06T18:03:25.253Z,5.87
2018-10-06T18:06:08.257Z,7.05
2018-10-06T18:08:40.127Z,7.00
2018-10-06T18:11:11.315Z,5.47
2018-10-06T18:13:41.837Z,11.00
2018-10-06T18:16:12.299Z,8.90
2018-10-06T18:18:42.754Z,5.10
2018-10-06T18:21:13.255Z,8.77
2018-10-06T18:23:43.716Z,8.40
2018-10-06T18:26:14.341Z,6.20
2018-10-06T18:28:45.575Z,8.63
2018-10-06T18:31:16.161Z,5.87
2018-10-06T18:33:46.537Z,10.70
2018-10-06T18:36:17.182Z,9.93
2018-10-06T18:42:04.091Z,8.37
2018-10-06T18:44:34.503Z,8.90
2018-10-06T18:47:08.647Z,10.43
2018-10-06T18:49:39.098Z,7.80
2018-10-06T18:52:09.569Z,8.30
2018-10-06T18:54:40.238Z,7.97
2018-10-06T18:57:10.987Z,10.80
2018-10-06T18:59:54.198Z,7.57
2018-10-06T19:02:45.808Z,7.20
2018-10-06T19:05:17.301Z,8.93
2018-10-06T19:07:47.772Z,6.47
2018-10-06T19:10:18.582Z,9.70
2018-10-06T19:12:48.911Z,8.70
2018-10-06T19:15:19.381Z,9.83
2018-10-06T19:17:50.739Z,9.93
2018-10-06T19:20:21.985Z,7.43
2018-10-06T19:22:52.587Z,7.10
2018-10-06T19:25:23.208Z,9.50
2018-10-06T19:27:53.709Z,9.00
2018-10-06T19:30:24.130Z,7.17
2018-10-06T19:32:54.854Z,11.07
2018-10-06T19:35:25.370Z,7.93
2018-10-06T19:37:55.856Z,7.97
2018-10-06T19:40:26.317Z,7.53
2018-10-06T19:42:57.577Z,9.07
2018-10-06T19:45:28.077Z,6.90
2018-10-06T19:47:58.590Z,7.20
2018-10-06T19:50:29.257Z,12.30
2018-10-06T19:52:59.786Z,8.07
2018-10-06T19:55:30.444Z,10.60
2018-10-06T19:58:00.888Z,9.67
2018-10-06T20:00:31.482Z,9.10
2018-10-06T20:03:02.256Z,9.23
2018-10-06T20:05:32.786Z,10.23
2018-10-06T20:08:03.501Z,12.17
2018-10-06T20:10:33.927Z,10.20
2018-10-06T20:13:04.632Z,9.07
2018-10-06T20:15:35.166Z,9.40
2018-10-06T20:18:05.732Z,12.50
2018-10-06T20:20:36.212Z,9.43
2018-10-06T20:23:06.748Z,9.83
2018-10-06T20:25:37.309Z,11.87
2018-10-06T20:28:08.232Z,14.80
2018-10-06T20:30:38.726Z,9.90
2018-10-06T20:33:09.636Z,10.37
2018-10-06T20:35:42.155Z,12.07
2018-10-06T20:38:12.741Z,9.50
2018-10-06T20:40:43.389Z,11.93
2018-10-06T20:43:14.490Z,10.37
2018-10-06T20:45:45.152Z,16.50
2018-10-06T20:48:15.884Z,10.77
2018-10-06T20:50:46.471Z,11.67
2018-10-06T20:53:17.030Z,9.07
2018-10-06T20:55:47.467Z,11.80
2018-10-06T20:58:18.269Z,13.17
2018-10-06T21:00:48.792Z,10.17
2018-10-06T21:03:19.169Z,12.83
2018-10-06T21:05:49.597Z,13.27
2018-10-06T21:08:20.076Z,11.37
2018-10-06T21:10:50.825Z,11.70
2018-10-06T21:13:21.368Z,11.33
2018-10-06T21:15:51.980Z,18.37
2018-10-06T21:18:22.576Z,14.50
2018-10-06T21:20:53.017Z,13.60
2018-10-06T21:23:23.535Z,16.43
2018-10-06T21:25:53.983Z,12.20
2018-10-06T21:28:24.668Z,18.33
2018-10-06T21:30:55.152Z,11.30
2018-10-06T21:33:25.705Z,13.27
2018-10-06T21:35:56.081Z,13.80
2018-10-06T21:38:26.642Z,15.27
2018-10-06T21:40:57.073Z,15.40
2018-10-06T21:43:27.598Z,15.17
2018-10-06T21:45:57.980Z,16.37
2018-10-06T21:48:28.501Z,14.10
2018-10-06T21:50:58.958Z,16.90
2018-10-06T21:53:29.779Z,15.63
2018-10-06T21:56:00.280Z,24.70
2018-10-06T21:58:30.840Z,24.07
2018-10-06T22:01:12.360Z,25.00
2018-10-06T22:03:44.260Z,24.13
2018-10-06T22:06:14.643Z,32.47
2018-10-06T22:08:45.439Z,26.13
2018-10-06T22:11:16.313Z,28.57
2018-10-06T22:13:47.293Z,28.70
2018-10-06T22:16:17.741Z,27.97
2018-10-06T22:18:48.364Z,31.47
2018-10-06T22:21:18.811Z,37.37
2018-10-06T22:23:49.302Z,38.67
2018-10-06T22:26:19.672Z,40.43
2018-10-06T22:28:50.118Z,43.17
2018-10-06T22:31:20.611Z,39.40
2018-10-06T22:33:51.175Z,46.63
2018-10-06T22:36:21.626Z,39.83
2018-10-06T22:38:52.167Z,41.93
2018-10-06T22:41:25.430Z,44.00
2018-10-06T22:43:55.997Z,37.20
2018-10-06T22:46:26.451Z,45.83
2018-10-06T22:48:57.355Z,48.58
2018-10-06T22:51:27.795Z,47.50
2018-10-06T22:53:58.314Z,46.40
2018-10-06T22:56:28.757Z,48.30
2018-10-06T22:58:59.260Z,44.53
2018-10-06T23:01:29.641Z,49.13
2018-10-06T23:04:00.082Z,43.37
2018-10-06T23:06:30.547Z,42.83
2018-10-06T23:09:01.136Z,43.13
2018-10-06T23:11:31.547Z,43.33
2018-10-06T23:14:02.062Z,42.63
2018-10-06T23:16:32.462Z,44.83
2018-10-06T23:19:02.913Z,53.73
2018-10-06T23:21:33.386Z,47.80
2018-10-06T23:24:03.871Z,55.33
2018-10-06T23:26:34.314Z,53.40
2018-10-06T23:29:04.774Z,59.83
2018-10-06T23:31:35.190Z,53.43
2018-10-06T23:34:05.650Z,58.47
2018-10-06T23:36:36.109Z,60.67
2018-10-06T23:39:07.852Z,60.43
2018-10-06T23:41:38.254Z,56.57
2018-10-06T23:44:09.115Z,58.45
2018-10-06T23:46:39.619Z,61.03
2018-10-06T23:49:10.177Z,55.87
2018-10-06T23:51:40.610Z,58.10
2018-10-06T23:54:11.202Z,57.63
2018-10-06T23:56:41.621Z,59.13
2018-10-06T23:59:12.466Z,64.97
